createdAt,value
2023-03-16T03:53:18.595Z,97871.30
2023-03-16T05:04:27.100Z,97932.41
2023-03-16T05:06:55.691Z,97933.37
2023-03-16T05:09:28.006Z,97938.57
2023-03-16T05:11:56.221Z,97943.44
2023-03-16T05:14:27.068Z,97943.85
2023-03-16T05:17:15.808Z,97944.13
2023-03-16T05:19:44.346Z,97945.02
2023-03-16T05:22:15.958Z,97948.13
2023-03-16T05:25:03.521Z,97947.36
2023-03-16T05:27:34.427Z,97951.95
2023-03-16T05:30:04.133Z,97955.15
2023-03-16T05:32:32.986Z,97956.19
2023-03-16T05:35:23.046Z,97963.10
2023-03-16T05:37:53.354Z,97965.59
2023-03-16T05:40:23.381Z,97967.30
2023-03-16T05:43:02.479Z,97971.98
2023-03-16T05:45:35.025Z,97977.27
2023-03-16T05:48:09.491Z,97983.63
2023-03-16T05:50:42.245Z,97991.05
2023-03-16T05:53:11.305Z,97995.90
2023-03-16T05:55:39.822Z,97990.20
2023-03-16T05:58:09.840Z,97990.59
2023-03-16T06:00:45.906Z,97988.15
2023-03-16T06:03:22.788Z,97989.80
2023-03-16T06:05:54.547Z,97993.70
2023-03-16T06:08:30.151Z,97994.62
2023-03-16T06:11:26.293Z,97988.98
2023-03-16T06:13:57.938Z,97994.27
2023-03-16T06:16:26.577Z,97994.73
2023-03-16T06:18:59.223Z,98006.02
2023-03-16T06:21:28.670Z,98008.46
2023-03-16T06:24:12.309Z,98014.52
2023-03-16T06:26:49.004Z,98014.77
2023-03-16T06:29:19.434Z,98011.90
2023-03-16T06:31:48.006Z,98010.05
2023-03-16T06:34:16.498Z,98014.34
2023-03-16T06:36:47.035Z,98017.25
2023-03-16T06:39:20.222Z,98021.09
2023-03-16T06:41:52.251Z,98023.86
2023-03-16T06:44:23.058Z,98023.30
2023-03-16T06:47:00.705Z,98023.02
2023-03-16T06:49:29.287Z,98023.42
2023-03-16T06:51:59.464Z,98027.92
2023-03-16T06:54:28.256Z,98027.11
2023-03-16T06:56:58.360Z,98023.77
2023-03-16T06:59:26.657Z,98019.91
2023-03-16T07:01:55.831Z,98021.13
2023-03-16T07:04:25.376Z,98028.55
2023-03-16T07:06:53.949Z,98031.21
2023-03-16T07:09:27.721Z,98030.59
2023-03-16T07:12:18.223Z,98030.40
2023-03-16T07:14:54.087Z,98039.95
2023-03-16T07:17:27.016Z,98040.13
2023-03-16T07:19:55.771Z,98036.73
2023-03-16T07:22:30.071Z,98044.88
2023-03-16T07:29:47.813Z,98062.39
2023-03-16T07:32:16.426Z,98061.48
2023-03-16T07:34:47.896Z,98064.56
2023-03-16T07:37:21.787Z,98069.42
2023-03-16T07:39:54.247Z,98071.00
2023-03-16T07:42:22.852Z,98073.99
2023-03-16T07:45:14.535Z,98074.02
2023-03-16T07:47:45.806Z,98085.73
2023-03-16T07:50:23.809Z,98091.75
2023-03-16T07:52:54.544Z,98090.51
2023-03-16T07:55:23.997Z,98088.50
2023-03-16T07:57:52.843Z,98092.70
2023-03-16T08:00:28.956Z,98101.97
2023-03-16T08:02:59.110Z,98113.73
2023-03-16T08:05:55.326Z,98112.36
2023-03-16T08:08:27.288Z,98117.14
2023-03-16T08:10:56.671Z,98119.60
2023-03-16T08:13:32.312Z,98117.27
2023-03-16T08:16:02.580Z,98115.38
2023-03-16T08:18:35.792Z,98123.02
2023-03-16T08:21:05.299Z,98127.63
2023-03-16T08:23:34.039Z,98132.55
2023-03-16T08:26:09.139Z,98135.11
2023-03-16T08:28:37.879Z,98135.86
2023-03-16T08:31:09.763Z,98141.70
2023-03-16T08:33:47.019Z,98148.80
2023-03-16T08:36:16.909Z,98147.52
2023-03-16T08:39:06.183Z,98150.67
2023-03-16T08:42:26.419Z,98157.75
2023-03-16T08:45:12.316Z,98154.14
2023-03-16T08:47:42.748Z,98152.39
2023-03-16T08:50:15.760Z,98158.10
2023-03-16T08:52:44.949Z,98158.51
2023-03-16T08:55:33.267Z,98162.73
2023-03-16T08:58:07.015Z,98164.27
2023-03-16T09:00:37.062Z,98168.48
2023-03-16T09:03:06.384Z,98172.41
2023-03-16T09:05:35.513Z,98177.58
2023-03-16T09:08:06.505Z,98185.17
2023-03-16T09:10:39.818Z,98183.84
2023-03-16T09:13:11.702Z,98188.44
2023-03-16T09:15:41.492Z,98190.17
2023-03-16T09:18:11.442Z,98189.44
2023-03-16T09:20:39.995Z,98191.45
2023-03-16T09:23:15.392Z,98192.36
2023-03-16T09:25:46.683Z,98192.38
2023-03-16T09:28:21.678Z,98198.66
2023-03-16T09:30:55.410Z,98202.70
2023-03-16T09:33:25.145Z,98202.27
2023-03-16T09:35:56.057Z,98204.00
2023-03-16T09:38:26.771Z,98214.33
2023-03-16T09:41:06.950Z,98214.65
2023-03-16T09:44:13.710Z,98211.64
2023-03-16T09:47:03.299Z,98214.38
2023-03-16T09:49:38.200Z,98215.42
2023-03-16T09:52:51.916Z,98215.83
2023-03-16T09:55:38.121Z,98218.45
2023-03-16T09:58:15.838Z,98219.17
2023-03-16T10:00:54.460Z,98223.40
2023-03-16T10:04:08.205Z,98225.57
2023-03-16T10:07:07.191Z,98224.13
2023-03-16T10:09:57.817Z,98225.49
2023-03-16T10:12:44.255Z,98228.17
2023-03-16T10:15:16.642Z,98227.77
2023-03-16T10:18:13.539Z,98231.14
2023-03-16T10:20:48.347Z,98233.94
2023-03-16T10:23:21.631Z,98244.58
2023-03-16T10:25:52.577Z,98247.40
2023-03-16T10:28:28.866Z,98244.58
2023-03-16T10:31:23.932Z,98250.04
2023-03-16T10:33:58.622Z,98247.66
2023-03-16T10:36:50.157Z,98249.98
2023-03-16T10:39:21.409Z,98254.35
2023-03-16T10:41:57.389Z,98255.56
2023-03-16T10:44:28.798Z,98263.77
2023-03-16T10:47:25.785Z,98262.76
2023-03-16T10:49:58.254Z,98264.29
2023-03-16T10:52:34.696Z,98266.77
2023-03-16T10:55:30.468Z,98269.70
2023-03-16T10:58:01.588Z,98267.02
2023-03-16T11:00:35.501Z,98265.63
2023-03-16T11:03:28.929Z,98267.39
2023-03-16T11:06:03.012Z,98268.52
2023-03-16T11:08:47.958Z,98270.63
2023-03-16T11:11:50.956Z,98274.45
2023-03-16T11:14:22.858Z,98279.23
2023-03-16T11:17:12.575Z,98277.58
2023-03-16T11:20:07.563Z,98281.67
2023-03-16T11:22:38.520Z,98282.44
2023-03-16T11:25:48.637Z,98280.98
2023-03-16T11:28:39.782Z,98279.68
2023-03-16T11:31:17.426Z,98281.83
2023-03-16T11:33:47.813Z,98282.42
2023-03-16T11:36:36.033Z,98285.00
2023-03-16T11:39:36.298Z,98284.52
2023-03-16T11:42:28.115Z,98277.60
2023-03-16T11:45:20.560Z,98280.83
2023-03-16T11:48:16.959Z,98282.45
2023-03-16T11:51:10.659Z,98283.11
2023-03-16T11:53:52.074Z,98282.19
2023-03-16T11:56:43.965Z,98285.73
2023-03-16T11:59:31.105Z,98292.26
2023-03-16T12:02:26.980Z,98288.40
2023-03-16T12:05:04.494Z,98294.89
2023-03-16T12:08:08.233Z,98297.19
2023-03-16T12:11:02.836Z,98299.45
2023-03-16T12:13:35.764Z,98302.32
2023-03-16T12:16:31.029Z,98302.20
2023-03-16T12:19:47.281Z,98307.36
2023-03-16T12:22:20.043Z,98303.34
2023-03-16T12:24:51.475Z,98306.05
2023-03-16T12:27:40.057Z,98310.98
2023-03-16T12:30:44.631Z,98314.45
2023-03-16T12:33:35.306Z,98319.19
2023-03-16T12:36:18.209Z,98318.83
2023-03-16T12:39:09.963Z,98322.67
2023-03-16T12:42:29.664Z,98324.23
2023-03-16T12:45:13.761Z,98328.85
2023-03-16T12:48:00.529Z,98325.76
2023-03-16T12:50:28.914Z,98329.25
2023-03-16T12:52:57.901Z,98335.55
2023-03-16T12:55:41.119Z,98338.70
2023-03-16T12:58:13.414Z,98332.99
2023-03-16T13:00:42.971Z,98344.66
2023-03-16T13:03:15.605Z,98337.94
2023-03-16T13:09:11.369Z,98347.74
2023-03-16T13:12:07.696Z,98347.29
2023-03-16T13:14:44.380Z,98353.08
2023-03-16T13:17:19.215Z,98353.85
2023-03-16T13:20:21.067Z,98357.42
2023-03-16T13:23:23.460Z,98360.44
2023-03-16T13:26:11.150Z,98366.77
2023-03-16T13:28:40.269Z,98366.58
2023-03-16T13:31:27.720Z,98367.31
2023-03-16T13:33:57.006Z,98365.48
2023-03-16T13:36:44.526Z,98366.98
2023-03-16T13:39:22.858Z,98366.77
2023-03-16T13:42:14.895Z,98369.13
2023-03-16T13:44:47.202Z,98377.52
2023-03-16T13:47:20.297Z,98379.67
2023-03-16T13:50:11.636Z,98380.19
2023-03-16T13:53:04.195Z,98385.23
2023-03-16T13:55:35.950Z,98388.51
2023-03-16T13:58:04.635Z,98393.61
2023-03-16T14:00:39.759Z,98395.33
2023-03-16T14:03:38.165Z,98402.63
2023-03-16T14:06:11.201Z,98400.55
2023-03-16T14:09:01.813Z,98407.17
2023-03-16T14:11:33.624Z,98408.67
2023-03-16T14:14:16.121Z,98407.32
2023-03-16T14:16:44.876Z,98408.59
2023-03-16T14:19:25.926Z,98411.59
2023-03-16T14:21:56.079Z,98419.64
2023-03-16T14:24:31.146Z,98421.52
2023-03-16T14:27:18.344Z,98421.59
2023-03-16T14:29:54.742Z,98425.21
2023-03-16T14:32:32.064Z,98424.41
2023-03-16T14:35:12.988Z,98426.96
2023-03-16T14:37:42.114Z,98434.54
2023-03-16T14:40:26.076Z,98434.99
2023-03-16T14:42:55.917Z,98436.46
2023-03-16T14:45:38.782Z,98437.48
2023-03-16T14:48:21.246Z,98439.40
2023-03-16T14:50:58.826Z,98443.85
2023-03-16T14:53:29.338Z,98442.27
2023-03-16T14:55:58.289Z,98445.16
2023-03-16T14:58:28.805Z,98448.92
2023-03-16T15:00:58.043Z,98450.69
2023-03-16T15:03:33.040Z,98455.43
2023-03-16T15:06:01.817Z,98458.16
2023-03-16T15:08:32.331Z,98460.11
2023-03-16T15:11:05.028Z,98461.67
2023-03-16T15:13:53.456Z,98467.05
2023-03-16T15:16:23.636Z,98473.20
2023-03-16T15:18:52.061Z,98477.77
2023-03-16T15:21:24.902Z,98482.80
2023-03-16T15:23:54.793Z,98480.54
2023-03-16T15:26:26.336Z,98482.01
2023-03-16T15:28:57.654Z,98486.95
2023-03-16T15:31:26.565Z,98491.36
2023-03-16T15:33:55.118Z,98500.67
2023-03-16T15:36:25.247Z,98507.36
2023-03-16T15:38:55.814Z,98510.91
2023-03-16T15:41:30.099Z,98518.11
2023-03-16T15:44:09.316Z,98522.82
2023-03-16T15:46:39.430Z,98530.08
2023-03-16T15:49:08.440Z,98532.95
2023-03-16T15:51:38.449Z,98540.61
2023-03-16T15:54:08.573Z,98547.23
2023-03-16T15:56:52.880Z,98543.07
2023-03-16T15:59:27.230Z,98544.66
2023-03-16T16:01:57.761Z,98554.23
2023-03-16T16:04:26.471Z,98558.86
2023-03-16T16:06:55.595Z,98567.12
2023-03-16T16:09:25.045Z,98571.97
2023-03-16T16:11:54.094Z,98579.67
2023-03-16T16:14:29.619Z,98582.92
2023-03-16T16:16:58.402Z,98586.34
2023-03-16T16:19:27.136Z,98587.98
2023-03-16T16:21:57.447Z,98592.40
2023-03-16T16:24:26.102Z,98598.41
2023-03-16T16:26:55.751Z,98601.34
2023-03-16T16:29:27.424Z,98601.61
2023-03-16T16:31:56.946Z,98603.77
2023-03-16T16:34:25.831Z,98609.59
2023-03-16T16:36:55.743Z,98610.96
2023-03-16T16:39:24.007Z,98618.51
2023-03-16T16:41:58.093Z,98624.91
2023-03-16T16:44:28.163Z,98629.31
2023-03-16T16:46:59.887Z,98630.80
2023-03-16T16:49:30.779Z,98631.79
2023-03-16T16:52:13.034Z,98627.41
2023-03-16T16:54:41.644Z,98630.75
2023-03-16T16:57:19.837Z,98634.39
2023-03-16T16:59:51.204Z,98637.63
2023-03-16T17:02:32.540Z,98643.83
2023-03-16T17:05:00.757Z,98650.62
2023-03-16T17:07:29.533Z,98654.52
2023-03-16T17:09:59.134Z,98659.38
2023-03-16T17:12:29.764Z,98666.19
2023-03-16T17:14:58.028Z,98663.30
2023-03-16T17:17:28.973Z,98671.48
2023-03-16T17:19:57.558Z,98675.90
2023-03-16T17:22:26.600Z,98674.62
2023-03-16T17:24:56.559Z,98679.40
2023-03-16T17:27:29.842Z,98677.19
2023-03-16T17:29:58.869Z,98675.90
2023-03-16T17:32:27.461Z,98680.61
2023-03-16T17:34:56.012Z,98684.50
2023-03-16T17:37:24.287Z,98687.06
2023-03-16T17:39:54.214Z,98692.02
2023-03-16T17:42:27.740Z,98694.02
2023-03-16T17:44:56.507Z,98695.77
2023-03-16T17:47:26.600Z,98696.71
2023-03-16T17:49:58.215Z,98700.47
2023-03-16T17:58:39.071Z,98706.33
2023-03-16T18:01:07.551Z,98710.70
2023-03-16T18:03:37.093Z,98712.00
2023-03-16T18:06:07.000Z,98718.21
2023-03-16T18:08:36.271Z,98720.35
2023-03-16T18:11:07.415Z,98723.48
2023-03-16T18:13:37.500Z,98721.95
2023-03-16T18:16:07.311Z,98722.45
2023-03-16T18:18:40.031Z,98725.25
2023-03-16T18:21:19.609Z,98732.41
2023-03-16T18:23:48.007Z,98738.30
2023-03-16T18:26:19.255Z,98740.80
2023-03-16T18:28:48.642Z,98745.52
2023-03-16T18:31:25.971Z,98745.57
2023-03-16T18:34:04.096Z,98747.70
2023-03-16T18:36:35.341Z,98748.69
2023-03-16T18:39:15.395Z,98757.77
2023-03-16T18:41:47.140Z,98761.46
2023-03-16T18:44:30.059Z,98758.59
2023-03-16T18:47:00.950Z,98763.20
2023-03-16T18:49:35.006Z,98765.58
2023-03-16T18:52:03.981Z,98765.48
2023-03-16T18:54:35.491Z,98767.19
2023-03-16T18:57:16.648Z,98767.66
2023-03-16T18:59:45.832Z,98771.01
2023-03-16T19:02:28.703Z,98773.27
2023-03-16T19:04:58.318Z,98774.70
2023-03-16T19:07:33.960Z,98773.79
2023-03-16T19:10:24.585Z,98779.95
2023-03-16T19:12:53.811Z,98788.71
2023-03-16T19:15:27.960Z,98788.45
2023-03-16T19:17:57.343Z,98788.33
2023-03-16T19:20:31.473Z,98787.34
2023-03-16T19:23:03.196Z,98795.11
2023-03-16T19:25:36.682Z,98798.05
2023-03-16T19:28:06.635Z,98795.53
2023-03-16T19:30:35.286Z,98798.83
2023-03-16T19:33:03.873Z,98802.64
2023-03-16T19:35:50.707Z,98801.48
2023-03-16T19:38:22.316Z,98805.12
2023-03-16T19:40:56.518Z,98802.01
2023-03-16T19:43:25.017Z,98806.25
2023-03-16T19:45:55.081Z,98809.92
2023-03-16T19:48:32.350Z,98815.45
2023-03-16T19:51:01.320Z,98820.77
2023-03-16T19:53:29.961Z,98820.12
2023-03-16T19:55:58.479Z,98826.13
2023-03-16T19:58:39.467Z,98826.44
2023-03-16T20:01:19.248Z,98828.55
2023-03-16T20:03:48.595Z,98836.59
2023-03-16T20:06:21.741Z,98839.21
2023-03-16T20:08:51.059Z,98841.51
2023-03-16T20:11:32.382Z,98842.95
2023-03-16T20:14:01.364Z,98848.27
2023-03-16T20:16:32.324Z,98846.89
2023-03-16T20:19:03.188Z,98846.92
2023-03-16T20:21:31.731Z,98848.14
2023-03-16T20:24:00.003Z,98851.53
2023-03-16T20:26:32.487Z,98855.52
2023-03-16T20:29:00.968Z,98855.32
2023-03-16T20:31:34.743Z,98849.02
2023-03-16T20:34:04.052Z,98851.64
2023-03-16T20:36:32.633Z,98853.08
2023-03-16T20:39:03.483Z,98853.87
2023-03-16T20:41:36.458Z,98856.59
2023-03-16T20:44:05.079Z,98856.30
2023-03-16T20:46:35.900Z,98860.49
2023-03-16T20:49:05.836Z,98864.70
2023-03-16T20:51:35.975Z,98859.20
2023-03-16T20:54:04.617Z,98861.19
2023-03-16T20:56:32.971Z,98861.40
2023-03-16T20:59:02.492Z,98858.48
2023-03-16T21:01:32.232Z,98860.53
2023-03-16T21:04:04.764Z,98861.32
2023-03-16T21:06:33.971Z,98864.13
2023-03-16T21:09:03.678Z,98859.21
2023-03-16T21:11:36.846Z,98863.02
2023-03-16T21:14:07.205Z,98859.51
2023-03-16T21:16:35.462Z,98859.70
2023-03-16T21:19:03.636Z,98858.80
2023-03-16T21:21:31.910Z,98858.05
2023-03-16T21:24:05.017Z,98867.14
2023-03-16T21:26:34.130Z,98867.75
2023-03-16T21:29:06.776Z,98871.67
2023-03-16T21:31:37.249Z,98880.10
2023-03-16T21:34:14.287Z,98878.96
2023-03-16T21:36:44.451Z,98881.95
2023-03-16T21:39:18.732Z,98882.27
2023-03-16T21:41:50.167Z,98887.18
2023-03-16T21:44:22.853Z,98890.89
2023-03-16T21:46:51.598Z,98891.94
2023-03-16T21:49:20.016Z,98894.73
2023-03-16T21:51:50.453Z,98892.60
2023-03-16T21:54:19.554Z,98893.85
2023-03-16T21:56:48.815Z,98896.06
2023-03-16T21:59:17.410Z,98900.96
2023-03-16T22:02:01.082Z,98901.61
2023-03-16T22:04:30.126Z,98903.08
2023-03-16T22:06:58.347Z,98903.70
2023-03-16T22:09:30.301Z,98900.94
2023-03-16T22:11:59.574Z,98902.67
2023-03-16T22:14:34.434Z,98904.05
2023-03-16T22:17:04.124Z,98908.64
2023-03-16T22:19:33.723Z,98909.04
2023-03-16T22:22:03.773Z,98913.36
2023-03-16T22:24:37.056Z,98913.73
2023-03-16T22:27:11.246Z,98910.98
2023-03-16T22:29:44.448Z,98913.19
2023-03-16T22:32:16.975Z,98909.81
2023-03-16T22:34:49.701Z,98909.55
2023-03-16T22:37:23.200Z,98909.55
2023-03-16T22:39:51.634Z,98906.16
2023-03-16T22:42:37.150Z,98911.02
2023-03-16T22:45:14.629Z,98910.70
2023-03-16T22:47:50.709Z,98910.41
2023-03-16T22:50:20.928Z,98913.61
2023-03-16T22:52:50.464Z,98913.73
2023-03-16T22:55:21.718Z,98913.19
2023-03-16T22:58:04.805Z,98911.54
2023-03-16T23:00:33.393Z,98911.50
2023-03-16T23:03:02.480Z,98911.66
2023-03-16T23:05:33.431Z,98906.90
2023-03-16T23:08:02.785Z,98904.79
2023-03-16T23:10:31.432Z,98906.04
2023-03-16T23:13:00.810Z,98905.52
2023-03-16T23:15:30.870Z,98907.52
2023-03-16T23:17:59.855Z,98904.04
2023-03-16T23:20:31.934Z,98904.93
2023-03-16T23:23:01.292Z,98907.68
2023-03-16T23:25:29.689Z,98912.02
2023-03-16T23:27:58.559Z,98909.00
2023-03-16T23:30:27.562Z,98907.89
2023-03-16T23:33:01.399Z,98907.14
2023-03-16T23:35:31.098Z,98913.13
2023-03-16T23:37:59.499Z,98910.36
2023-03-16T23:40:28.979Z,98914.06
2023-03-16T23:42:58.790Z,98919.73
2023-03-16T23:45:34.708Z,98920.08
2023-03-16T23:48:05.911Z,98918.20
2023-03-16T23:50:35.966Z,98920.77
2023-03-16T23:53:04.185Z,98920.41
2023-03-16T23:55:35.383Z,98922.23
2023-03-16T23:58:04.046Z,98920.09
